createdAt,value
2023-05-08T00:04:02.028Z,15.839464882943144
2023-05-08T00:10:25.399Z,15.923076923076923
2023-05-08T00:16:49.046Z,16.525083612040135
2023-05-08T00:26:33.214Z,15.615384615384615
2023-05-08T00:32:55.152Z,14.705685618729097
2023-05-08T00:39:18.073Z,16.19732441471572
2023-05-08T00:45:46.059Z,16.48494983277592
2023-05-08T00:52:10.532Z,16.48494983277592
2023-05-08T01:04:06.932Z,14.789297658862877
2023-05-08T01:11:08.014Z,15.377926421404682
2023-05-08T01:17:31.822Z,16.4247491638796
2023-05-08T01:23:58.497Z,15.518394648829432
2023-05-08T01:30:28.981Z,16.17056856187291
2023-05-08T01:38:11.334Z,15.74581939799331
2023-05-08T01:44:34.368Z,17.123745819397993
2023-05-08T01:50:59.538Z,16.82608695652174
2023-05-08T02:09:35.537Z,17.274247491638796
2023-05-08T02:21:25.029Z,17.872909698996654
2023-05-08T02:27:51.380Z,18.137123745819398
2023-05-08T02:34:21.157Z,18.65551839464883
2023-05-08T02:40:46.380Z,19.123745819397993
2023-05-08T02:50:29.836Z,19.63545150501672
2023-05-08T02:58:50.796Z,19.076923076923077
2023-05-08T03:05:20.056Z,18.73913043478261
2023-05-08T03:16:54.314Z,19.535117056856187
2023-05-08T03:23:18.781Z,19.712374581939798
2023-05-08T03:29:44.369Z,20.180602006688964
2023-05-08T03:36:12.421Z,20.183946488294314
2023-05-08T03:42:49.872Z,20.48160535117057
2023-05-08T03:49:22.124Z,20.016722408026755
2023-05-08T03:55:46.658Z,21.909698996655518
2023-05-08T04:06:19.066Z,21.632107023411372
2023-05-08T04:12:55.524Z,20.812709030100333
2023-05-08T04:19:25.898Z,20.91304347826087
2023-05-08T04:28:21.610Z,21.59531772575251
2023-05-08T04:34:48.448Z,20.989966555183948
2023-05-08T04:41:30.287Z,20.956521739130434
2023-05-08T04:47:54.711Z,20.347826086956523
2023-05-08T04:54:32.366Z,20.929765886287626
2023-05-08T05:00:59.935Z,20.210702341137125
2023-05-08T05:08:02.016Z,20.93979933110368
2023-05-08T05:14:37.868Z,20.612040133779264
2023-05-08T05:22:17.263Z,21.347826086956523
2023-05-08T05:28:41.375Z,19.63545150501672
2023-05-08T05:39:09.371Z,21.14715719063545
2023-05-08T05:48:51.680Z,21.016722408026755
2023-05-08T05:55:17.142Z,21.023411371237458
2023-05-08T06:04:46.584Z,19.806020066889634
2023-05-08T06:11:10.912Z,21.043478260869566
2023-05-08T06:25:54.600Z,20.765886287625417
2023-05-08T06:32:20.837Z,20.5752508361204
2023-05-08T06:38:44.715Z,20.474916387959865
2023-05-08T06:45:09.243Z,19.929765886287626
2023-05-08T06:51:34.275Z,20.317725752508363
2023-05-08T06:57:58.318Z,19.759197324414714
2023-05-08T07:04:22.882Z,20.531772575250837
2023-05-08T07:10:47.916Z,20.023411371237458
2023-05-08T07:20:47.343Z,19.94983277591973
2023-05-08T07:32:13.307Z,19.745819397993312
2023-05-08T07:38:36.133Z,20.28428093645485
2023-05-08T07:48:07.197Z,19.204013377926422
2023-05-08T07:54:30.563Z,20.08026755852843
2023-05-08T08:01:51.421Z,20.110367892976587
2023-05-08T08:08:16.056Z,20.54515050167224
2023-05-08T08:14:40.094Z,19.732441471571907
2023-05-08T08:27:23.483Z,20.528428093645484
2023-05-08T08:33:47.905Z,19.103678929765888
2023-05-08T08:40:11.728Z,20.54180602006689
2023-05-08T08:46:35.945Z,20.234113712374583
2023-05-08T08:53:00.477Z,20.468227424749163
2023-05-08T08:59:25.108Z,20.411371237458194
2023-05-08T09:05:50.025Z,21.347826086956523
2023-05-08T09:12:14.429Z,23.331103678929765
2023-05-08T09:18:38.199Z,23.100334448160535
2023-05-08T09:25:02.209Z,23.792642140468228
2023-05-08T09:31:26.699Z,23.581939799331103
2023-05-08T09:37:51.517Z,24.247491638795985
2023-05-08T09:44:16.054Z,22.47826086956522
2023-05-08T09:50:41.660Z,22.989966555183948
2023-05-08T09:57:08.504Z,22.39799331103679
2023-05-08T10:03:34.371Z,21.94648829431438
2023-05-08T10:11:32.025Z,21.91638795986622
2023-05-08T10:17:55.881Z,22.933110367892976
2023-05-08T10:24:20.730Z,22.274247491638796
2023-05-08T10:35:37.299Z,21.678929765886288
2023-05-08T10:42:00.933Z,21.351170568561873
2023-05-08T10:48:25.260Z,22.795986622073578
2023-05-08T10:54:49.750Z,22.451505016722408
2023-05-08T11:01:14.554Z,22.37123745819398
2023-05-08T11:07:38.820Z,20.725752508361204
2023-05-08T11:14:03.167Z,21.384615384615383
2023-05-08T11:20:29.450Z,21.578595317725753
2023-05-08T11:28:11.116Z,21.32441471571906
2023-05-08T11:34:36.503Z,20.60535117056856
2023-05-08T11:41:02.134Z,21.923076923076923
2023-05-08T11:53:09.495Z,20.270903010033443
2023-05-08T11:59:33.938Z,20.923076923076923
2023-05-08T12:18:03.277Z,20.71571906354515
2023-05-08T12:24:30.474Z,18.80267558528428
2023-05-08T12:33:30.450Z,19.180602006688964
2023-05-08T12:39:57.503Z,18.989966555183948
2023-05-08T12:49:44.311Z,17.91973244147157
2023-05-08T12:56:12.865Z,17.618729096989966
2023-05-08T13:02:49.228Z,16.06020066889632
2023-05-08T13:15:05.394Z,16.91973244147157
2023-05-08T13:26:49.324Z,15.85953177257525
2023-05-08T13:33:15.076Z,15.37458193979933
2023-05-08T13:48:18.829Z,14.759197324414716
2023-05-08T13:54:43.777Z,13.190635451505017
2023-05-08T14:04:28.096Z,11.535117056856187
2023-05-08T14:10:52.093Z,11.909698996655518
2023-05-08T14:21:51.433Z,10.474916387959865
2023-05-08T14:28:15.374Z,10.123745819397993
2023-05-08T14:38:26.333Z,10.190635451505017
2023-05-08T14:44:50.323Z,9.722408026755852
2023-05-08T14:51:14.902Z,10.77257525083612
2023-05-08T15:25:24.099Z,10.163879598662207
2023-05-08T15:42:05.662Z,9.923076923076923
2023-05-08T15:48:31.572Z,10.20401337792642
2023-05-08T15:54:55.138Z,10.782608695652174
2023-05-08T16:02:17.912Z,9.839464882943144
2023-05-08T16:08:41.949Z,10.361204013377927
2023-05-08T16:17:12.027Z,10.819397993311037
2023-05-08T16:23:36.981Z,10.267558528428093
2023-05-08T16:30:01.233Z,10.177257525083611
2023-05-08T16:36:26.688Z,9.568561872909699
2023-05-08T16:42:49.948Z,10.525083612040135
2023-05-08T16:49:13.915Z,11.501672240802675
2023-05-08T16:55:38.751Z,10.397993311036789
2023-05-08T17:02:16.834Z,10.14046822742475
2023-05-08T17:08:52.238Z,9.765886287625419
2023-05-08T17:15:14.940Z,11.424749163879598
2023-05-08T17:34:47.106Z,12.301003344481606
2023-05-08T17:41:10.244Z,11.732441471571907
2023-05-08T17:50:56.832Z,9.735785953177258
2023-05-08T18:03:34.291Z,9.050167224080267
2023-05-08T18:18:09.875Z,8.311036789297658
2023-05-08T18:24:34.121Z,8.88628762541806
2023-05-08T18:35:34.474Z,10.247491638795987
2023-05-08T18:41:58.931Z,10.31438127090301
2023-05-08T18:48:23.348Z,10.488294314381271
2023-05-08T18:54:46.516Z,11.25752508361204
2023-05-08T19:01:07.674Z,10.615384615384615
2023-05-08T19:07:28.635Z,9.341137123745819
2023-05-08T19:19:16.739Z,9.468227424749164
2023-05-08T19:25:38.300Z,10.220735785953178
2023-05-08T19:32:10.138Z,11.558528428093645
2023-05-08T19:38:34.273Z,10.749163879598662
2023-05-08T19:44:58.889Z,10.147157190635452
2023-05-08T19:57:03.725Z,9.468227424749164
2023-05-08T20:03:28.785Z,9.324414715719064
2023-05-08T20:09:53.084Z,9.080267558528428
2023-05-08T20:16:15.592Z,8.939799331103679
2023-05-08T20:22:37.681Z,8.418060200668897
2023-05-08T20:36:01.199Z,16.638795986622075
2023-05-08T20:49:47.693Z,10.923076923076923
2023-05-08T20:56:19.167Z,10.0
2023-05-08T21:02:50.331Z,10.294314381270903
2023-05-08T21:09:19.390Z,9.638795986622073
2023-05-08T21:20:26.843Z,10.692307692307692
2023-05-08T21:26:57.156Z,10.608695652173912
2023-05-08T21:33:20.996Z,9.558528428093645
2023-05-08T21:39:44.679Z,9.59866220735786
2023-05-08T21:46:11.309Z,10.20401337792642
2023-05-08T21:54:01.963Z,10.060200668896321
2023-05-08T22:00:25.788Z,9.461538461538462
2023-05-08T22:06:50.423Z,9.31438127090301
2023-05-08T22:13:16.384Z,8.879598662207357
2023-05-08T22:19:40.293Z,8.966555183946488
2023-05-08T22:26:07.147Z,8.819397993311037
2023-05-08T22:32:37.177Z,8.551839464882944
2023-05-08T22:39:05.169Z,8.107023411371237
2023-05-08T22:45:29.807Z,7.7725752508361206
2023-05-08T22:51:55.600Z,8.384615384615385
2023-05-08T22:58:21.822Z,7.872909698996655
2023-05-08T23:04:47.147Z,7.933110367892977
2023-05-08T23:11:14.625Z,8.297658862876254
2023-05-08T23:23:48.033Z,8.464882943143813
2023-05-08T23:30:13.331Z,8.642140468227424
2023-05-08T23:36:40.467Z,7.769230769230769
2023-05-08T23:43:07.547Z,8.301003344481606
2023-05-08T23:49:32.859Z,8.117056856187292
2023-05-08T23:56:01.510Z,7.224080267558528
